Pagina principale
METAR-TAF:

METAR-TAF

Aeroporti :

Paganella, Italia

latitudine: 46-09N, longitudine: 011-02E, altezza: 2125 m

Osservazione

Il bollettino è stato emesso 22 minuti fa, alle 13:55 UTC
Vento 8 kt da sud-ovest
Temperature 0°C
Umidità 86%
Pressione 1008 hPa
Visibilità minore di 50 m
neve debole, nebbia che ghiaccia

METAR: LIVP 211355Z 23008KT 0000 -SN FZFG VV/// M00/M02 Q1008 RMK MON INVIS VAL INVIS VIS MIN 0000

Ora: 15:17 (14:17 UTC)


TAF: mancante

Osservazioni e previsioni meteorologiche di più di 4000 aeroporti (messaggi METAR e TAF).

Le stazioni disponibili sono rappresentate dai dischi gialli e rossi sulla carta.

Puntare il mouse per vedere il nome della stazione.

Clicca sopra per visualizzare le osservazioni e previsioni meteorologiche.

Per cambiare la mappa : fare clic sui pulsanti verdi con una croce nera per ingrandire, il pulsante verde con un trattino per diminuire, o sulla freccia verde per le mappe adiacenti.


METAR-TAF: